createdAt,value
2022-08-08T00:00:53.087Z,71.87
2022-08-08T00:04:17.663Z,72.37
2022-08-08T00:09:16.721Z,72.74
2022-08-08T00:14:57.134Z,72.82
2022-08-08T00:19:15.097Z,73.22
2022-08-08T00:24:14.259Z,73.35
2022-08-08T00:29:17.221Z,73.82
2022-08-08T00:34:31.560Z,74.10
2022-08-08T00:39:36.211Z,74.34
2022-08-08T00:44:24.301Z,74.96
2022-08-08T00:49:27.519Z,75.02
2022-08-08T00:54:28.934Z,75.87
2022-08-08T00:59:44.722Z,76.01
2022-08-08T01:04:29.639Z,76.05
2022-08-08T01:09:36.762Z,76.49
2022-08-08T01:14:54.760Z,76.94
2022-08-08T01:19:52.005Z,77.03
2022-08-08T01:24:28.237Z,77.26
2022-08-08T01:29:35.179Z,77.05
2022-08-08T01:34:29.147Z,77.49
2022-08-08T01:39:20.121Z,77.38
2022-08-08T01:44:26.314Z,77.89
2022-08-08T01:49:23.417Z,78.12
2022-08-08T01:55:25.652Z,78.36
2022-08-08T01:59:38.089Z,78.04
2022-08-08T02:04:20.276Z,77.82
2022-08-08T02:10:02.554Z,78.02
2022-08-08T02:14:24.292Z,77.87
2022-08-08T02:19:50.518Z,77.91
2022-08-08T02:24:16.233Z,77.79
2022-08-08T02:29:23.274Z,77.65
2022-08-08T02:34:32.660Z,77.99
2022-08-08T02:39:42.452Z,78.49
2022-08-08T02:44:39.101Z,78.26
2022-08-08T02:49:48.144Z,78.19
2022-08-08T02:54:27.991Z,78.10
2022-08-08T02:59:36.981Z,77.77
2022-08-08T03:05:02.827Z,77.26
2022-08-08T03:09:28.568Z,77.61
2022-08-08T03:15:59.348Z,77.93
2022-08-08T03:19:28.876Z,77.63
2022-08-08T03:24:08.499Z,77.77
2022-08-08T03:29:16.689Z,77.63
2022-08-08T03:34:14.162Z,78.18
2022-08-08T03:39:15.751Z,78.44
2022-08-08T03:44:08.286Z,78.28
2022-08-08T03:49:58.963Z,78.65
2022-08-08T03:54:09.013Z,78.38
2022-08-08T03:59:08.555Z,77.85
2022-08-08T04:04:09.707Z,77.58
2022-08-08T04:09:11.094Z,77.57
2022-08-08T04:14:34.393Z,77.20
2022-08-08T04:19:23.833Z,77.03
2022-08-08T04:24:23.293Z,76.72
2022-08-08T04:29:08.670Z,76.45
2022-08-08T04:34:09.777Z,75.85
2022-08-08T04:40:06.115Z,75.49
2022-08-08T04:44:08.544Z,75.21
2022-08-08T04:49:11.338Z,74.94
2022-08-08T04:54:39.623Z,73.89
2022-08-08T04:59:08.360Z,73.77
2022-08-08T05:04:12.674Z,73.25
2022-08-08T05:09:08.911Z,73.01
2022-08-08T05:14:08.693Z,72.83
2022-08-08T05:20:11.294Z,72.44
2022-08-08T05:24:10.627Z,72.50
2022-08-08T05:29:08.336Z,71.69
2022-08-08T05:34:16.971Z,71.71
2022-08-08T05:39:09.562Z,70.94
2022-08-08T05:44:11.776Z,69.46
2022-08-08T05:49:11.272Z,68.53
2022-08-08T05:54:27.261Z,67.96
2022-08-08T05:59:13.948Z,67.50
2022-08-08T06:04:13.761Z,66.80
2022-08-08T06:09:58.164Z,66.22
2022-08-08T06:14:12.949Z,65.10
2022-08-08T06:19:14.469Z,64.21
2022-08-08T06:24:14.084Z,61.84
2022-08-08T06:29:10.699Z,61.16
2022-08-08T06:34:25.897Z,59.66
2022-08-08T06:39:10.706Z,58.01
2022-08-08T06:44:22.837Z,57.86
2022-08-08T06:49:11.133Z,56.09
2022-08-08T06:54:08.946Z,53.71
2022-08-08T06:59:12.107Z,51.37
2022-08-08T07:04:40.369Z,51.01
2022-08-08T07:09:15.241Z,49.39
2022-08-08T07:14:15.260Z,47.55
2022-08-08T07:19:14.542Z,47.38
2022-08-08T07:24:16.726Z,45.06
2022-08-08T07:29:11.642Z,45.08
2022-08-08T07:34:10.933Z,43.80
2022-08-08T07:39:10.920Z,43.38
2022-08-08T07:44:37.245Z,42.97
2022-08-08T07:49:08.914Z,40.18
2022-08-08T07:54:24.041Z,39.72
2022-08-08T07:59:14.226Z,38.28
2022-08-08T08:04:13.944Z,36.53
2022-08-08T08:09:11.963Z,35.40
2022-08-08T08:14:10.629Z,34.03
2022-08-08T08:19:09.911Z,31.44
2022-08-08T08:24:08.756Z,33.00
2022-08-08T08:29:09.038Z,34.39
2022-08-08T08:34:08.304Z,34.27
2022-08-08T08:39:17.307Z,32.00
2022-08-08T08:44:14.366Z,29.65
2022-08-08T08:49:08.681Z,31.27
2022-08-08T08:54:11.890Z,32.04
2022-08-08T08:59:15.600Z,29.36
2022-08-08T09:04:31.549Z,30.69
2022-08-08T09:09:26.080Z,29.60
2022-08-08T09:14:08.656Z,29.38
2022-08-08T09:19:10.263Z,29.18
2022-08-08T09:24:08.813Z,28.40
2022-08-08T09:29:22.277Z,27.11
2022-08-08T09:34:31.451Z,26.89
2022-08-08T09:39:15.556Z,24.93
2022-08-08T09:44:18.789Z,26.52
2022-08-08T09:48:54.808Z,27.11
2022-08-08T09:49:41.150Z,27.11
2022-08-08T09:54:16.940Z,29.50
2022-08-08T09:59:42.873Z,28.82
2022-08-08T10:04:14.350Z,28.39
2022-08-08T10:09:08.720Z,27.63
2022-08-08T10:14:27.996Z,27.66
2022-08-08T10:19:10.273Z,28.32
2022-08-08T10:24:12.269Z,29.24
2022-08-08T10:29:11.397Z,30.90
2022-08-08T10:34:18.703Z,32.00
2022-08-08T10:39:10.324Z,30.56
2022-08-08T10:44:11.854Z,29.11
2022-08-08T10:49:08.210Z,29.71
2022-08-08T10:54:10.452Z,29.09
2022-08-08T10:58:33.270Z,30.54
2022-08-08T10:59:08.443Z,30.54
2022-08-08T11:04:10.945Z,31.40
2022-08-08T11:09:19.235Z,30.34
2022-08-08T11:14:12.417Z,31.60
2022-08-08T11:19:10.787Z,31.25
2022-08-08T11:24:11.182Z,31.65
2022-08-08T11:28:25.044Z,31.45
2022-08-08T11:29:09.259Z,31.45
2022-08-08T11:34:22.776Z,31.84
2022-08-08T11:39:13.117Z,32.49
2022-08-08T11:44:09.873Z,32.02
2022-08-08T11:49:10.679Z,32.29
2022-08-08T11:54:27.443Z,32.33
2022-08-08T11:59:10.229Z,32.49
2022-08-08T12:04:08.212Z,31.55
2022-08-08T12:09:09.815Z,32.45
2022-08-08T12:14:11.759Z,31.21
2022-08-08T12:19:10.904Z,31.58
2022-08-08T12:24:11.545Z,32.61
2022-08-08T12:29:22.537Z,32.52
2022-08-08T12:34:08.005Z,32.86
2022-08-08T12:39:09.188Z,32.08
2022-08-08T12:44:09.585Z,32.80
2022-08-08T12:49:40.194Z,32.93
2022-08-08T12:54:25.198Z,33.13
2022-08-08T12:59:17.527Z,32.16
2022-08-08T13:04:12.784Z,32.67
2022-08-08T13:09:10.395Z,32.29
2022-08-08T13:14:11.790Z,31.72
2022-08-08T13:18:11.046Z,32.30
2022-08-08T13:19:12.120Z,32.30
2022-08-08T13:24:09.251Z,31.44
2022-08-08T13:29:10.151Z,31.38
2022-08-08T13:34:11.844Z,31.87
2022-08-08T13:39:08.934Z,31.72
2022-08-08T13:44:10.796Z,32.78
2022-08-08T13:50:37.385Z,34.23
2022-08-08T13:54:08.081Z,35.03
2022-08-08T13:59:08.373Z,35.59
2022-08-08T14:04:20.452Z,35.84
2022-08-08T14:09:25.254Z,35.87
2022-08-08T14:14:09.155Z,36.74
2022-08-08T14:19:10.554Z,36.65
2022-08-08T14:21:55.348Z,37.04
2022-08-08T14:24:09.749Z,37.04
2022-08-08T14:29:28.126Z,36.72
2022-08-08T14:34:10.471Z,36.25
2022-08-08T14:39:11.420Z,35.50
2022-08-08T14:44:12.552Z,35.61
2022-08-08T14:49:20.464Z,36.06
2022-08-08T14:54:08.669Z,36.32
2022-08-08T14:59:22.385Z,36.73
2022-08-08T15:04:10.485Z,36.99
2022-08-08T15:09:08.163Z,37.25
2022-08-08T15:14:13.496Z,38.00
2022-08-08T15:19:08.046Z,39.23
2022-08-08T15:24:12.681Z,38.96
2022-08-08T15:28:05.117Z,38.75
2022-08-08T15:29:07.938Z,38.75
2022-08-08T15:34:08.549Z,38.34
2022-08-08T15:39:08.801Z,37.78
2022-08-08T15:44:12.955Z,37.53
2022-08-08T15:49:07.967Z,37.42
2022-08-08T15:54:18.392Z,37.49
2022-08-08T15:59:08.561Z,37.15
2022-08-08T16:04:07.968Z,37.65
2022-08-08T16:13:02.148Z,37.24
2022-08-08T16:14:15.722Z,37.00
2022-08-08T16:19:09.406Z,37.44
2022-08-08T16:24:11.327Z,37.32
2022-08-08T16:29:15.503Z,37.30
2022-08-08T16:34:08.794Z,38.51
2022-08-08T16:39:09.577Z,39.83
2022-08-08T16:44:12.484Z,40.20
2022-08-08T16:49:09.791Z,40.72
2022-08-08T16:55:06.926Z,40.44
2022-08-08T16:59:08.138Z,40.60
2022-08-08T17:04:07.921Z,40.95
2022-08-08T17:09:15.496Z,41.17
2022-08-08T17:14:18.118Z,41.05
2022-08-08T17:19:07.881Z,41.47
2022-08-08T17:24:21.940Z,41.87
2022-08-08T17:29:08.794Z,42.36
2022-08-08T17:34:37.696Z,42.80
2022-08-08T17:39:45.603Z,43.01
2022-08-08T17:42:02.715Z,43.57
2022-08-08T17:44:10.222Z,43.57
2022-08-08T17:49:09.774Z,43.88
2022-08-08T17:54:13.848Z,44.38
2022-08-08T17:59:08.057Z,44.69
2022-08-08T18:04:09.108Z,44.82
2022-08-08T18:08:41.373Z,44.95
2022-08-08T18:09:08.742Z,44.95
2022-08-08T18:14:21.667Z,45.18
2022-08-08T18:19:11.266Z,45.41
2022-08-08T18:24:17.358Z,45.65
2022-08-08T18:29:08.190Z,45.95
2022-08-08T18:34:25.057Z,46.61
2022-08-08T18:39:07.868Z,47.00
2022-08-08T18:44:07.854Z,47.23
2022-08-08T18:49:08.376Z,47.51
2022-08-08T18:54:13.762Z,47.60
2022-08-08T18:59:10.909Z,47.89
2022-08-08T19:04:10.867Z,48.06
2022-08-08T19:09:13.304Z,48.38
2022-08-08T19:14:09.017Z,48.45
2022-08-08T19:19:12.351Z,48.60
2022-08-08T19:22:01.901Z,48.86
2022-08-08T19:24:12.706Z,48.86
2022-08-08T19:29:08.269Z,48.99
2022-08-08T19:31:18.035Z,49.08
2022-08-08T19:34:35.916Z,49.08
2022-08-08T19:39:09.475Z,49.23
2022-08-08T19:44:13.097Z,49.33
2022-08-08T19:49:07.955Z,49.53
2022-08-08T19:54:07.961Z,49.63
2022-08-08T19:59:09.650Z,49.82
2022-08-08T20:04:08.122Z,49.89
2022-08-08T20:09:08.792Z,49.98
2022-08-08T20:14:33.055Z,50.16
2022-08-08T20:19:09.093Z,50.27
2022-08-08T20:24:08.119Z,50.66
2022-08-08T20:29:09.949Z,50.81
2022-08-08T20:34:29.972Z,50.94
2022-08-08T20:39:08.174Z,51.19
2022-08-08T20:41:51.269Z,51.33
2022-08-08T20:44:07.903Z,51.33
2022-08-08T20:49:07.869Z,51.28
2022-08-08T20:54:13.945Z,51.40
2022-08-08T20:59:09.007Z,51.49
2022-08-08T21:04:09.165Z,51.90
2022-08-08T21:09:08.381Z,51.89
2022-08-08T21:14:08.080Z,52.06
2022-08-08T21:19:10.892Z,52.40
2022-08-08T21:23:25.233Z,52.70
2022-08-08T21:24:20.974Z,52.70
2022-08-08T21:29:08.099Z,52.63
2022-08-08T21:34:07.886Z,53.13
2022-08-08T21:39:08.294Z,53.27
2022-08-08T21:44:08.314Z,53.57
2022-08-08T21:49:08.994Z,53.67
2022-08-08T21:54:33.836Z,53.75
2022-08-08T21:59:09.803Z,54.17
2022-08-08T22:04:10.434Z,54.64
2022-08-08T22:09:09.037Z,54.55
2022-08-08T22:14:08.005Z,54.86
2022-08-08T22:16:32.401Z,54.88
2022-08-08T22:18:59.372Z,54.88
2022-08-08T22:19:15.592Z,54.88
2022-08-08T22:23:59.810Z,54.95
2022-08-08T22:24:07.761Z,54.95
2022-08-08T22:27:38.501Z,55.24
2022-08-08T22:29:56.999Z,55.24
2022-08-08T22:34:13.574Z,55.29
2022-08-08T22:39:08.729Z,55.80
2022-08-08T22:44:07.831Z,56.13
2022-08-08T22:44:33.926Z,56.13
2022-08-08T22:49:09.080Z,56.12
2022-08-08T22:50:09.691Z,55.98
2022-08-08T22:52:02.313Z,55.98
2022-08-08T22:54:31.290Z,55.98
2022-08-08T22:54:31.591Z,55.98
2022-08-08T22:59:07.648Z,56.49
2022-08-08T23:04:08.139Z,56.63
2022-08-08T23:06:45.354Z,57.07
2022-08-08T23:09:09.670Z,57.07
2022-08-08T23:14:07.621Z,57.32
2022-08-08T23:16:42.100Z,57.39
2022-08-08T23:17:46.752Z,57.39
2022-08-08T23:19:09.071Z,57.39
2022-08-08T23:22:15.222Z,57.42
2022-08-08T23:24:07.827Z,57.42
2022-08-08T23:29:11.057Z,57.42
2022-08-08T23:32:10.440Z,57.72
2022-08-08T23:34:18.642Z,57.72
2022-08-08T23:36:26.149Z,58.12
2022-08-08T23:38:03.103Z,58.12
2022-08-08T23:39:07.836Z,58.12
2022-08-08T23:40:21.893Z,58.59
2022-08-08T23:44:07.668Z,58.59
2022-08-08T23:49:03.018Z,58.88
2022-08-08T23:49:15.170Z,58.88
2022-08-08T23:52:40.040Z,59.07
2022-08-08T23:54:43.396Z,59.07
2022-08-08T23:55:07.620Z,59.35
2022-08-08T23:57:38.768Z,59.35
2022-08-08T23:59:16.926Z,59.35
